createdAt,value
2016-06-15T00:00:29.987Z,15.57
2016-06-15T00:01:44.288Z,15.59
2016-06-15T00:02:44.244Z,15.56
2016-06-15T00:03:30.216Z,15.65
2016-06-15T00:04:43.953Z,15.56
2016-06-15T00:05:29.644Z,15.64
2016-06-15T00:06:30.631Z,15.65
2016-06-15T00:07:30.290Z,15.64
2016-06-15T00:08:30.481Z,15.62
2016-06-15T00:09:44.343Z,15.62
2016-06-15T00:11:30.068Z,15.62
2016-06-15T00:15:30.096Z,15.6
2016-06-15T00:16:30.240Z,15.62
2016-06-15T00:17:30.118Z,15.59
2016-06-15T00:18:30.324Z,15.6
2016-06-15T00:19:30.108Z,15.56
2016-06-15T00:20:29.643Z,15.62
2016-06-15T00:21:30.147Z,15.64
2016-06-15T00:22:30.133Z,15.59
2016-06-15T00:23:44.200Z,15.59
2016-06-15T00:24:44.420Z,15.56
2016-06-15T00:25:30.143Z,15.54
2016-06-15T00:28:44.245Z,15.5
2016-06-15T00:29:30.202Z,15.56
2016-06-15T00:30:29.751Z,15.57
2016-06-15T00:31:30.208Z,15.53
2016-06-15T00:32:30.461Z,15.54
2016-06-15T00:33:30.636Z,15.56
2016-06-15T00:34:29.967Z,15.54
2016-06-15T00:35:31.048Z,15.59
2016-06-15T00:36:30.865Z,15.5
2016-06-15T00:37:30.445Z,15.56
2016-06-15T00:38:30.463Z,15.56
2016-06-15T00:39:30.264Z,15.56
2016-06-15T00:40:30.252Z,15.54
2016-06-15T00:41:30.269Z,15.56
2016-06-15T00:42:30.476Z,15.56
2016-06-15T00:43:30.276Z,15.57
2016-06-15T00:44:30.482Z,15.56
2016-06-15T00:46:30.707Z,15.57
2016-06-15T00:47:30.351Z,15.59
2016-06-15T00:48:30.307Z,15.62
2016-06-15T00:49:30.294Z,15.57
2016-06-15T00:50:31.594Z,15.65
2016-06-15T00:51:30.536Z,15.59
2016-06-15T00:53:30.354Z,15.65
2016-06-15T00:54:30.357Z,15.65
2016-06-15T00:55:30.829Z,15.59
2016-06-15T00:56:30.410Z,15.6
2016-06-15T00:57:30.647Z,15.67
2016-06-15T00:58:30.416Z,15.57
2016-06-15T00:59:30.486Z,15.69
2016-06-15T01:00:44.807Z,15.62
2016-06-15T01:01:30.799Z,15.71
2016-06-15T01:02:30.604Z,15.64
2016-06-15T01:03:31.266Z,15.6
2016-06-15T01:04:30.875Z,15.65
2016-06-15T01:05:30.454Z,15.75
2016-06-15T01:06:30.892Z,15.71
2016-06-15T01:07:31.173Z,15.69
2016-06-15T01:08:31.995Z,15.68
2016-06-15T01:10:31.167Z,15.64
2016-06-15T01:11:30.973Z,15.62
2016-06-15T01:12:31.308Z,15.74
2016-06-15T01:13:30.767Z,15.65
2016-06-15T01:14:31.052Z,15.67
2016-06-15T01:15:30.823Z,15.71
2016-06-15T01:16:30.797Z,15.71
2016-06-15T01:17:30.816Z,15.67
2016-06-15T01:18:30.821Z,15.62
2016-06-15T01:19:31.059Z,15.69
2016-06-15T01:21:31.067Z,15.67
2016-06-15T01:22:31.555Z,15.71
2016-06-15T01:23:30.886Z,15.69
2016-06-15T01:24:30.936Z,15.68
2016-06-15T01:25:30.877Z,15.69
2016-06-15T01:26:31.083Z,15.71
2016-06-15T01:27:30.899Z,15.65
2016-06-15T01:28:31.104Z,15.68
2016-06-15T01:29:30.905Z,15.68
2016-06-15T01:30:31.110Z,15.68
2016-06-15T01:31:30.927Z,15.69
2016-06-15T01:32:30.945Z,15.69
2016-06-15T01:33:30.933Z,15.72
2016-06-15T01:34:30.951Z,15.72
2016-06-15T01:35:32.080Z,15.64
2016-06-15T01:36:30.957Z,15.68
2016-06-15T01:37:30.976Z,15.6
2016-06-15T01:38:30.979Z,15.6
2016-06-15T01:39:31.435Z,15.62
2016-06-15T01:40:31.001Z,15.67
2016-06-15T01:41:30.988Z,15.62
2016-06-15T01:42:31.007Z,15.62
2016-06-15T01:43:31.197Z,15.62
2016-06-15T01:44:31.404Z,15.59
2016-06-15T01:45:31.031Z,15.65
2016-06-15T01:46:30.566Z,15.59
2016-06-15T01:47:31.037Z,15.59
2016-06-15T01:48:31.057Z,15.64
2016-06-15T01:49:31.044Z,15.56
2016-06-15T01:50:31.719Z,15.68
2016-06-15T01:51:31.066Z,15.54
2016-06-15T01:52:31.116Z,15.62
2016-06-15T01:53:31.088Z,15.62
2016-06-15T01:54:31.091Z,15.59
2016-06-15T01:55:31.094Z,15.59
2016-06-15T01:56:31.159Z,15.6
2016-06-15T01:57:31.162Z,15.59
2016-06-15T01:59:31.122Z,15.57
2016-06-15T02:00:31.157Z,15.56
2016-06-15T02:01:31.363Z,15.56
2016-06-15T02:02:31.147Z,15.57
2016-06-15T02:03:31.150Z,15.57
2016-06-15T02:04:30.544Z,15.5
2016-06-15T02:05:31.828Z,15.51
2016-06-15T02:06:31.175Z,15.5
2016-06-15T02:07:31.146Z,15.57
2016-06-15T02:08:31.243Z,15.56
2016-06-15T02:09:31.199Z,15.53
2016-06-15T02:10:31.827Z,15.54
2016-06-15T02:11:45.316Z,15.59
2016-06-15T02:12:31.225Z,15.54
2016-06-15T02:14:30.825Z,15.53
2016-06-15T02:15:30.828Z,15.51
2016-06-15T02:16:31.299Z,15.54
2016-06-15T02:17:45.349Z,15.53
2016-06-15T02:18:30.821Z,15.5
2016-06-15T02:19:45.371Z,15.44
2016-06-15T02:20:31.405Z,15.51
2016-06-15T02:21:45.580Z,15.5
2016-06-15T02:22:31.756Z,15.53
2016-06-15T02:23:45.789Z,15.54
2016-06-15T02:24:31.356Z,15.49
2016-06-15T02:25:45.436Z,15.53
2016-06-15T02:26:31.579Z,15.54
2016-06-15T02:29:45.416Z,15.54
2016-06-15T02:30:31.608Z,15.54
2016-06-15T02:31:45.829Z,15.51
2016-06-15T02:32:31.395Z,15.51
2016-06-15T02:33:45.648Z,15.54
2016-06-15T02:34:45.464Z,15.57
2016-06-15T02:35:45.920Z,15.53
2016-06-15T02:36:31.642Z,15.53
2016-06-15T02:37:31.660Z,15.5
2016-06-15T02:38:31.648Z,15.59
2016-06-15T02:39:31.619Z,15.56
2016-06-15T02:40:31.872Z,15.54
2016-06-15T02:41:45.751Z,15.51
2016-06-15T02:42:45.738Z,15.53
2016-06-15T02:43:31.492Z,15.54
2016-06-15T02:44:31.479Z,15.51
2016-06-15T02:45:31.498Z,15.53
2016-06-15T02:46:31.923Z,15.51
2016-06-15T02:47:45.769Z,15.51
2016-06-15T02:48:31.522Z,15.6
2016-06-15T02:49:31.525Z,15.54
2016-06-15T02:50:46.107Z,15.53
2016-06-15T02:51:31.766Z,15.5
2016-06-15T02:52:45.832Z,15.56
2016-06-15T02:53:31.772Z,15.56
2016-06-15T02:55:31.591Z,15.54
2016-06-15T02:56:31.594Z,15.54
2016-06-15T02:57:31.784Z,15.54
2016-06-15T02:58:31.788Z,15.56
2016-06-15T02:59:31.712Z,15.54
2016-06-15T03:00:45.684Z,15.6
2016-06-15T03:01:31.640Z,15.59
2016-06-15T03:02:31.691Z,15.59
2016-06-15T03:03:45.709Z,15.59
2016-06-15T03:04:32.071Z,15.6
2016-06-15T03:05:45.715Z,15.59
2016-06-15T03:06:45.703Z,15.54
2016-06-15T03:08:45.912Z,15.51
2016-06-15T03:09:45.744Z,15.62
2016-06-15T03:10:45.730Z,15.59
2016-06-15T03:11:46.375Z,15.5
2016-06-15T03:12:45.753Z,15.57
2016-06-15T03:13:46.162Z,15.57
2016-06-15T03:14:31.930Z,15.59
2016-06-15T03:15:45.980Z,15.6
2016-06-15T03:16:32.343Z,15.59
2016-06-15T03:17:31.956Z,15.59
2016-06-15T03:18:45.817Z,15.59
2016-06-15T03:19:46.024Z,15.54
2016-06-15T03:20:31.886Z,15.54
2016-06-15T03:21:31.967Z,15.57
2016-06-15T03:22:32.001Z,15.6
2016-06-15T03:23:32.193Z,15.57
2016-06-15T03:24:45.851Z,15.64
2016-06-15T03:25:31.808Z,15.6
2016-06-15T03:26:32.014Z,15.67
2016-06-15T03:27:46.064Z,15.59
2016-06-15T03:28:45.880Z,15.62
2016-06-15T03:29:32.070Z,15.53
2016-06-15T03:30:32.058Z,15.56
2016-06-15T03:31:32.061Z,15.59
2016-06-15T03:32:32.485Z,15.59
2016-06-15T03:33:31.879Z,15.57
2016-06-15T03:34:45.899Z,15.56
2016-06-15T03:35:45.823Z,15.59
2016-06-15T03:36:32.873Z,15.6
2016-06-15T03:37:45.939Z,15.62
2016-06-15T03:38:45.958Z,15.57
2016-06-15T03:39:45.945Z,15.56
2016-06-15T03:40:45.964Z,15.59
2016-06-15T03:42:45.985Z,15.54
2016-06-15T03:43:46.223Z,15.62
2016-06-15T03:44:46.413Z,15.51
2016-06-15T03:45:45.995Z,15.64
2016-06-15T03:46:46.419Z,15.68
2016-06-15T03:47:46.048Z,15.57
2016-06-15T03:48:32.378Z,15.51
2016-06-15T03:49:32.179Z,15.6
2016-06-15T03:50:45.540Z,15.65
2016-06-15T03:51:46.029Z,15.64
2016-06-15T03:52:32.000Z,15.62
2016-06-15T03:53:32.222Z,15.69
2016-06-15T03:55:46.900Z,15.64
2016-06-15T03:56:46.513Z,15.67
2016-06-15T03:57:32.078Z,15.68
2016-06-15T03:58:46.113Z,15.65
2016-06-15T03:59:32.037Z,15.71
2016-06-15T04:00:32.040Z,15.69
2016-06-15T04:01:46.544Z,15.65
2016-06-15T04:03:00.187Z,15.69
2016-06-15T04:03:32.253Z,15.69
2016-06-15T04:04:46.162Z,15.65
2016-06-15T04:05:46.947Z,15.67
2016-06-15T04:06:46.169Z,15.72
2016-06-15T04:07:32.500Z,15.72
2016-06-15T04:08:46.190Z,15.72
2016-06-15T04:10:00.443Z,15.75
2016-06-15T04:10:32.134Z,15.71
2016-06-15T04:11:46.621Z,15.78
2016-06-15T04:12:47.202Z,15.76
2016-06-15T04:13:32.408Z,15.75
2016-06-15T04:14:46.396Z,15.69
2016-06-15T04:15:46.618Z,15.76
2016-06-15T04:16:32.167Z,15.8
2016-06-15T04:17:46.640Z,15.78
2016-06-15T04:18:32.190Z,15.82
2016-06-15T04:19:46.459Z,15.78
2016-06-15T04:20:46.477Z,15.8
2016-06-15T04:21:32.558Z,15.84
2016-06-15T04:22:46.483Z,15.8
2016-06-15T04:25:33.258Z,15.87
2016-06-15T04:26:46.512Z,15.8
2016-06-15T04:27:32.248Z,15.84
2016-06-15T04:28:32.674Z,15.87
2016-06-15T04:29:46.536Z,15.89
2016-06-15T04:31:46.339Z,15.8
2016-06-15T04:32:46.374Z,15.78
2016-06-15T04:33:46.564Z,15.86
2016-06-15T04:34:46.770Z,15.92
2016-06-15T04:35:46.773Z,15.89
2016-06-15T04:37:32.326Z,15.9
2016-06-15T04:38:46.407Z,15.86
2016-06-15T04:39:32.348Z,15.92
2016-06-15T04:40:32.586Z,15.94
2016-06-15T04:41:46.651Z,15.92
2016-06-15T04:42:32.388Z,15.9
2016-06-15T04:43:32.391Z,15.9
2016-06-15T04:44:32.394Z,15.93
2016-06-15T04:45:32.397Z,15.97
2016-06-15T04:46:32.620Z,15.96
2016-06-15T04:47:32.825Z,15.97
2016-06-15T04:48:32.626Z,15.96
2016-06-15T04:49:46.676Z,16.02
2016-06-15T04:50:32.632Z,16.05
2016-06-15T04:51:46.525Z,16.01
2016-06-15T04:52:32.872Z,16.05
2016-06-15T04:53:32.688Z,16.11
2016-06-15T04:54:47.112Z,16.08
2016-06-15T04:55:32.694Z,16.15
2016-06-15T04:56:46.556Z,16.15
2016-06-15T04:57:49.794Z,16.23
2016-06-15T04:58:32.890Z,16.25
2016-06-15T04:59:46.550Z,16.3
2016-06-15T05:00:46.959Z,16.35
2016-06-15T05:01:46.759Z,16.35
2016-06-15T05:02:46.778Z,16.43
2016-06-15T05:03:46.578Z,16.43
2016-06-15T05:04:32.753Z,16.45
2016-06-15T05:05:32.568Z,16.52
2016-06-15T05:06:32.571Z,16.52
2016-06-15T05:07:32.981Z,16.63
2016-06-15T05:08:32.985Z,16.7
2016-06-15T05:09:47.033Z,16.73
2016-06-15T05:10:32.787Z,16.79
2016-06-15T05:11:32.789Z,16.79
2016-06-15T05:12:32.825Z,16.75
2016-06-15T05:13:32.828Z,16.89
2016-06-15T05:14:32.596Z,16.93
2016-06-15T05:15:38.584Z,16.96
2016-06-15T05:16:32.259Z,16.98
2016-06-15T05:17:33.058Z,17
2016-06-15T05:18:33.077Z,16.93
2016-06-15T05:19:32.925Z,16.93
2016-06-15T05:20:33.067Z,16.96
2016-06-15T05:21:32.884Z,16.96
2016-06-15T05:23:33.546Z,16.93
2016-06-15T05:25:32.693Z,16.94
2016-06-15T05:26:32.914Z,16.93
2016-06-15T05:27:32.730Z,16.88
2016-06-15T05:28:32.733Z,16.89
2016-06-15T05:29:32.736Z,17
2016-06-15T05:30:32.770Z,17.06
2016-06-15T05:31:32.664Z,16.98
2016-06-15T05:32:33.183Z,16.93
2016-06-15T05:33:32.779Z,16.94
2016-06-15T05:34:32.814Z,16.98
2016-06-15T05:35:32.786Z,16.97
2016-06-15T05:36:32.820Z,16.98
2016-06-15T05:37:32.932Z,16.97
2016-06-15T05:39:32.844Z,16.88
2016-06-15T05:40:33.253Z,16.88
2016-06-15T05:41:33.132Z,16.85
2016-06-15T05:42:34.120Z,16.88
2016-06-15T05:43:32.903Z,16.89
2016-06-15T05:44:32.766Z,16.89
2016-06-15T05:45:47.160Z,16.89
2016-06-15T05:46:32.930Z,16.91
2016-06-15T05:47:46.994Z,16.96
2016-06-15T05:48:32.951Z,16.88
2016-06-15T05:49:33.156Z,16.91
2016-06-15T05:50:32.972Z,16.94
2016-06-15T05:51:33.678Z,16.93
2016-06-15T05:52:32.979Z,16.94
2016-06-15T05:53:47.559Z,17
2016-06-15T05:55:33.612Z,16.98
2016-06-15T05:56:33.116Z,16.93
2016-06-15T05:57:33.010Z,16.94
2016-06-15T05:58:33.231Z,16.97
2016-06-15T05:59:33.797Z,17
2016-06-15T06:00:35.815Z,16.96
2016-06-15T06:01:33.709Z,16.98
2016-06-15T06:02:34.104Z,16.97
2016-06-15T06:03:33.778Z,16.94
2016-06-15T06:04:34.391Z,17.03
2016-06-15T06:05:33.893Z,16.89
2016-06-15T06:06:34.958Z,16.88
2016-06-15T06:07:34.119Z,16.88
2016-06-15T06:08:34.403Z,16.89
2016-06-15T06:10:33.315Z,16.83
2016-06-15T06:11:33.131Z,16.76
2016-06-15T06:12:33.462Z,16.86
2016-06-15T06:13:34.481Z,16.79
2016-06-15T06:14:33.312Z,16.78
2016-06-15T06:15:33.206Z,16.75
2016-06-15T06:16:33.286Z,16.75
2016-06-15T06:17:33.681Z,16.79
2016-06-15T06:18:34.042Z,16.7
2016-06-15T06:19:34.124Z,16.7
2016-06-15T06:20:34.112Z,16.81
2016-06-15T06:21:33.521Z,16.68
2016-06-15T06:22:33.212Z,16.68
2016-06-15T06:23:34.418Z,16.75
2016-06-15T06:24:35.171Z,16.78
2016-06-15T06:25:33.736Z,16.71
2016-06-15T06:26:34.224Z,16.7
2016-06-15T06:27:33.414Z,16.73
2016-06-15T06:29:32.702Z,16.73
2016-06-15T06:30:33.532Z,16.68
2016-06-15T06:32:33.335Z,16.63
2016-06-15T06:33:33.558Z,16.71
2016-06-15T06:36:33.864Z,16.73
2016-06-15T06:37:34.991Z,16.66
2016-06-15T06:38:33.604Z,16.78
2016-06-15T06:39:33.357Z,16.68
2016-06-15T06:40:33.923Z,16.71
2016-06-15T06:41:33.395Z,16.63
2016-06-15T06:42:33.616Z,16.67
2016-06-15T06:43:33.932Z,16.71
2016-06-15T06:44:33.872Z,16.7
2016-06-15T06:45:33.470Z,16.79
2016-06-15T06:46:33.644Z,16.76
2016-06-15T06:47:33.460Z,16.71
2016-06-15T06:48:33.494Z,16.79
2016-06-15T06:49:33.685Z,16.78
2016-06-15T06:51:47.551Z,16.66
2016-06-15T06:52:47.757Z,16.56
2016-06-15T06:53:47.744Z,16.63
2016-06-15T06:54:33.731Z,16.57
2016-06-15T06:55:33.704Z,16.57
2016-06-15T06:57:33.773Z,16.56
2016-06-15T06:58:47.603Z,16.48
2016-06-15T06:59:33.560Z,16.52
2016-06-15T07:00:33.563Z,16.42
2016-06-15T07:01:33.582Z,16.46
2016-06-15T07:02:33.600Z,16.43
2016-06-15T07:03:47.869Z,16.41
2016-06-15T07:04:47.872Z,16.34
2016-06-15T07:05:33.828Z,16.39
2016-06-15T07:06:34.909Z,16.35
2016-06-15T07:07:34.006Z,16.33
2016-06-15T07:08:48.118Z,16.39
2016-06-15T07:09:47.918Z,16.38
2016-06-15T07:10:33.843Z,16.31
2016-06-15T07:12:34.052Z,16.31
2016-06-15T07:13:33.681Z,16.31
2016-06-15T07:14:33.886Z,16.25
2016-06-15T07:15:33.687Z,16.25
2016-06-15T07:17:48.084Z,16.15
2016-06-15T07:18:33.915Z,16.28
2016-06-15T07:19:33.933Z,16.17
2016-06-15T07:20:33.718Z,16.24
2016-06-15T07:21:33.503Z,16.28
2016-06-15T07:22:33.942Z,16.17
2016-06-15T07:23:34.617Z,16.27
2016-06-15T07:24:48.011Z,16.25
2016-06-15T07:25:33.765Z,16.33
2016-06-15T07:27:02.095Z,16.21
2016-06-15T07:27:33.287Z,16.3
2016-06-15T07:28:47.852Z,16.24
2016-06-15T07:29:47.839Z,16.34
2016-06-15T07:30:47.717Z,16.33
2016-06-15T07:31:34.033Z,16.3
2016-06-15T07:32:34.036Z,16.33
2016-06-15T07:33:33.836Z,16.35
2016-06-15T07:34:47.886Z,16.39
2016-06-15T07:35:34.014Z,16.41
2016-06-15T07:36:34.751Z,16.39
2016-06-15T07:37:47.926Z,16.35
2016-06-15T07:38:48.116Z,16.35
2016-06-15T07:39:48.135Z,16.42
2016-06-15T07:40:48.577Z,16.41
2016-06-15T07:41:33.923Z,16.38
2016-06-15T07:42:48.332Z,16.43
2016-06-15T07:44:33.917Z,16.46
2016-06-15T07:45:34.513Z,16.45
2016-06-15T07:46:34.720Z,16.53
2016-06-15T07:48:34.132Z,16.49
2016-06-15T07:49:34.166Z,16.52
2016-06-15T07:50:48.232Z,16.52
2016-06-15T07:51:33.828Z,16.53
2016-06-15T07:52:34.192Z,16.49
2016-06-15T07:53:34.178Z,16.52
2016-06-15T07:54:33.994Z,16.46
2016-06-15T07:55:34.091Z,16.46
2016-06-15T07:56:34.001Z,16.5
2016-06-15T07:57:48.675Z,16.5
2016-06-15T07:58:34.224Z,16.52
2016-06-15T07:59:34.228Z,16.5
2016-06-15T08:00:34.028Z,16.52
2016-06-15T08:01:34.031Z,16.6
2016-06-15T08:02:34.050Z,16.53
2016-06-15T08:03:34.053Z,16.63
2016-06-15T08:04:34.087Z,16.67
2016-06-15T08:05:34.074Z,16.63
2016-06-15T08:06:34.078Z,16.7
2016-06-15T08:07:34.502Z,16.66
2016-06-15T08:08:34.116Z,16.68
2016-06-15T08:09:34.712Z,16.7
2016-06-15T08:10:48.449Z,16.71
2016-06-15T08:11:34.172Z,16.67
2016-06-15T08:12:34.127Z,16.78
2016-06-15T08:13:34.131Z,16.71
2016-06-15T08:14:34.587Z,16.7
2016-06-15T08:15:34.012Z,16.73
2016-06-15T08:16:34.172Z,16.66
2016-06-15T08:17:34.174Z,16.71
2016-06-15T08:18:34.380Z,16.67
2016-06-15T08:19:34.086Z,16.71
2016-06-15T08:20:34.199Z,16.75
2016-06-15T08:21:34.156Z,16.73
2016-06-15T08:22:34.392Z,16.63
2016-06-15T08:23:34.193Z,16.68
2016-06-15T08:24:34.290Z,16.64
2016-06-15T08:25:34.652Z,16.76
2016-06-15T08:26:34.655Z,16.78
2016-06-15T08:27:34.439Z,16.64
2016-06-15T08:28:34.317Z,16.67
2016-06-15T08:29:34.258Z,16.67
2016-06-15T08:30:33.980Z,16.67
2016-06-15T08:31:34.279Z,16.71
2016-06-15T08:32:34.940Z,16.68
2016-06-15T08:33:34.285Z,16.68
2016-06-15T08:34:48.633Z,16.71
2016-06-15T08:35:34.527Z,16.61
2016-06-15T08:36:34.733Z,16.71
2016-06-15T08:37:34.408Z,16.75
2016-06-15T08:38:34.582Z,16.67
2016-06-15T08:39:34.992Z,16.71
2016-06-15T08:40:34.682Z,16.81
2016-06-15T08:41:34.560Z,16.76
2016-06-15T08:42:34.548Z,16.88
2016-06-15T08:43:34.363Z,16.82
2016-06-15T08:44:34.632Z,16.81
2016-06-15T08:45:34.386Z,16.76
2016-06-15T08:46:35.060Z,16.91
2016-06-15T08:47:34.408Z,16.94
2016-06-15T08:48:34.441Z,16.79
2016-06-15T08:49:34.413Z,16.88
2016-06-15T08:50:34.401Z,16.89
2016-06-15T08:51:35.184Z,16.94
2016-06-15T08:52:34.829Z,16.96
2016-06-15T08:53:34.659Z,17
2016-06-15T08:54:34.460Z,16.91
2016-06-15T08:55:34.916Z,17
2016-06-15T08:56:34.497Z,16.91
2016-06-15T08:57:34.484Z,16.97
2016-06-15T08:58:34.472Z,16.96
2016-06-15T08:59:34.506Z,16.91
2016-06-15T09:00:35.072Z,16.98
2016-06-15T09:01:48.826Z,16.98
2016-06-15T09:02:34.829Z,16.96
2016-06-15T09:03:35.160Z,17.01
2016-06-15T09:04:34.756Z,17.12
2016-06-15T09:05:34.572Z,16.97
2016-06-15T09:06:34.934Z,17.11
2016-06-15T09:08:34.801Z,17.06
2016-06-15T09:09:34.818Z,17.08
2016-06-15T09:10:33.946Z,17.14
2016-06-15T09:11:34.825Z,17.08
2016-06-15T09:12:34.609Z,17.14
2016-06-15T09:13:40.707Z,17.11
2016-06-15T09:14:34.655Z,17.16
2016-06-15T09:16:07.627Z,17.18
2016-06-15T09:16:34.643Z,17.16
2016-06-15T09:17:34.849Z,17.07
2016-06-15T09:18:34.697Z,17.08
2016-06-15T09:19:34.668Z,17.15
2016-06-15T09:20:34.717Z,17.15
2016-06-15T09:21:48.536Z,17.25
2016-06-15T09:22:36.880Z,17.16
2016-06-15T09:23:34.743Z,17.22
2016-06-15T09:24:34.948Z,17.21
2016-06-15T09:25:35.140Z,17.3
2016-06-15T09:26:35.110Z,17.23
2016-06-15T09:27:49.211Z,17.3
2016-06-15T09:28:34.977Z,17.23
2016-06-15T09:29:35.021Z,17.31
2016-06-15T09:30:35.196Z,17.33
2016-06-15T09:32:35.687Z,17.33
2016-06-15T09:33:35.518Z,17.37
2016-06-15T09:34:35.020Z,17.44
2016-06-15T09:35:35.509Z,17.43
2016-06-15T09:36:34.840Z,17.44
2016-06-15T09:38:35.157Z,17.54
2016-06-15T09:39:35.067Z,17.52
2016-06-15T09:40:34.930Z,17.54
2016-06-15T09:41:35.089Z,17.62
2016-06-15T09:42:34.889Z,17.62
2016-06-15T09:43:34.876Z,17.58
2016-06-15T09:44:34.895Z,17.64
2016-06-15T09:45:34.915Z,17.63
2016-06-15T09:46:34.745Z,17.7
2016-06-15T09:47:34.920Z,17.75
2016-06-15T09:48:35.188Z,17.81
2016-06-15T09:49:34.474Z,17.77
2016-06-15T09:50:34.976Z,17.86
2016-06-15T09:51:34.980Z,17.89
2016-06-15T09:52:35.654Z,17.95
2016-06-15T09:53:36.361Z,17.97
2016-06-15T09:54:49.335Z,18.05
2016-06-15T09:55:35.179Z,18.07
2016-06-15T09:56:35.541Z,18.08
2016-06-15T09:57:35.185Z,18.11
2016-06-15T09:58:35.485Z,18.15
2016-06-15T09:59:35.567Z,18.12
2016-06-15T10:00:35.319Z,18.17
2016-06-15T10:02:35.778Z,18.25
2016-06-15T10:03:49.975Z,18.18
2016-06-15T10:04:36.100Z,18.25
2016-06-15T10:05:35.643Z,18.14
2016-06-15T10:06:36.514Z,18.17
2016-06-15T10:07:35.839Z,18.23
2016-06-15T10:08:35.381Z,18.21
2016-06-15T10:09:49.694Z,18.27
2016-06-15T10:10:50.009Z,18.25
2016-06-15T10:11:35.868Z,18.23
2016-06-15T10:12:35.543Z,18.23
2016-06-15T10:13:35.748Z,18.14
2016-06-15T10:14:35.745Z,18.18
2016-06-15T10:15:35.378Z,18.18
2016-06-15T10:16:35.543Z,18.33
2016-06-15T10:17:53.778Z,18.3
2016-06-15T10:19:35.582Z,18.36
2016-06-15T10:20:35.994Z,18.33
2016-06-15T10:21:35.592Z,18.36
2016-06-15T10:23:36.540Z,18.58
2016-06-15T10:24:36.138Z,18.5
2016-06-15T10:25:36.048Z,18.6
2016-06-15T10:26:49.927Z,18.62
2016-06-15T10:27:36.335Z,18.67
2016-06-15T10:28:36.058Z,18.76
2016-06-15T10:29:36.062Z,18.81
2016-06-15T10:30:49.440Z,18.91
2016-06-15T10:32:36.322Z,18.94
2016-06-15T10:34:36.126Z,19.14
2016-06-15T10:35:52.894Z,19.11
2016-06-15T10:36:43.741Z,19.16
2016-06-15T10:37:58.435Z,19.28
2016-06-15T10:38:48.263Z,19.36
2016-06-15T10:40:04.520Z,19.43
2016-06-15T10:40:56.442Z,19.46
2016-06-15T10:41:53.163Z,19.51
2016-06-15T10:43:04.310Z,19.63
2016-06-15T10:43:40.357Z,19.69
2016-06-15T10:44:40.250Z,19.66
2016-06-15T10:47:07.338Z,19.77
2016-06-15T10:49:38.001Z,19.92
2016-06-15T10:50:35.879Z,19.99
2016-06-15T10:51:42.804Z,19.92
2016-06-15T10:53:25.482Z,19.91
2016-06-15T10:55:47.456Z,20.03
2016-06-15T10:56:16.475Z,20.08
2016-06-15T10:57:17.040Z,20.13
2016-06-15T10:58:16.356Z,20.24
2016-06-15T11:00:02.876Z,20.38
2016-06-15T11:01:02.207Z,20.32
2016-06-15T11:02:02.647Z,20.41
2016-06-15T11:03:15.934Z,20.51
2016-06-15T11:04:02.778Z,20.58
2016-06-15T11:05:02.078Z,20.69
2016-06-15T11:06:02.972Z,20.74
2016-06-15T11:07:02.241Z,20.72
2016-06-15T11:08:02.806Z,20.76
2016-06-15T11:09:01.996Z,20.74
2016-06-15T11:10:02.078Z,20.77
2016-06-15T11:11:02.143Z,20.8
2016-06-15T11:12:02.319Z,20.74
2016-06-15T11:13:02.166Z,20.76
2016-06-15T11:14:01.965Z,20.72
2016-06-15T11:15:02.608Z,20.77
2016-06-15T11:16:02.815Z,20.74
2016-06-15T11:17:02.256Z,20.74
2016-06-15T11:18:02.399Z,20.73
2016-06-15T11:19:03.310Z,20.76
2016-06-15T11:20:02.530Z,20.7
2016-06-15T11:21:02.472Z,20.73
2016-06-15T11:22:03.412Z,20.77
2016-06-15T11:23:02.992Z,20.73
2016-06-15T11:24:02.792Z,20.76
2016-06-15T11:26:02.798Z,20.8
2016-06-15T11:27:02.349Z,20.77
2016-06-15T11:28:02.415Z,20.74
2016-06-15T11:29:02.510Z,20.82
2016-06-15T11:30:16.533Z,20.8
2016-06-15T11:31:02.689Z,20.87
2016-06-15T11:32:02.614Z,20.87
2016-06-15T11:35:02.654Z,20.88
2016-06-15T11:36:02.487Z,20.87
2016-06-15T11:37:15.835Z,20.82
2016-06-15T11:38:03.288Z,20.91
2016-06-15T11:39:02.432Z,20.91
2016-06-15T11:40:02.482Z,20.82
2016-06-15T11:41:02.766Z,20.84
2016-06-15T11:42:02.661Z,20.82
2016-06-15T11:43:02.836Z,20.85
2016-06-15T11:44:02.682Z,20.88
2016-06-15T11:45:02.779Z,20.79
2016-06-15T11:46:03.220Z,20.76
2016-06-15T11:47:03.083Z,20.88
2016-06-15T11:48:03.210Z,20.82
2016-06-15T11:49:16.873Z,20.84
2016-06-15T11:50:02.748Z,20.82
2016-06-15T11:51:02.875Z,20.84
2016-06-15T11:52:17.570Z,20.92
2016-06-15T11:53:02.585Z,20.95
2016-06-15T11:54:02.604Z,20.95
2016-06-15T11:55:16.734Z,21.01
2016-06-15T11:56:02.781Z,21.04
2016-06-15T11:57:02.676Z,21.06
2016-06-15T11:58:02.975Z,21.09
2016-06-15T12:01:03.406Z,21.27
2016-06-15T12:02:02.848Z,21.31
2016-06-15T12:03:02.632Z,21.42
2016-06-15T12:04:17.372Z,21.43
2016-06-15T12:05:02.904Z,21.43
2016-06-15T12:06:03.156Z,21.54
2016-06-15T12:07:16.912Z,21.52
2016-06-15T12:08:03.724Z,21.59
2016-06-15T12:09:03.306Z,21.61
2016-06-15T12:10:17.015Z,21.68
2016-06-15T12:11:17.159Z,21.67
2016-06-15T12:13:02.756Z,21.69
2016-06-15T12:14:02.978Z,21.68
2016-06-15T12:15:17.047Z,21.77
2016-06-15T12:16:02.781Z,21.8
2016-06-15T12:17:03.190Z,21.8
2016-06-15T12:18:17.681Z,21.8
2016-06-15T12:19:03.009Z,21.83
2016-06-15T12:20:02.793Z,21.96
2016-06-15T12:21:02.812Z,22.02
2016-06-15T12:22:03.206Z,21.96
2016-06-15T12:23:03.364Z,22
2016-06-15T12:24:03.649Z,22.05
2016-06-15T12:25:03.324Z,22.15
2016-06-15T12:27:03.174Z,22.25
2016-06-15T12:28:03.099Z,22.21
2016-06-15T12:29:05.133Z,22.28
2016-06-15T12:30:03.293Z,22.35
2016-06-15T12:31:03.171Z,22.39
2016-06-15T12:32:03.127Z,22.39
2016-06-15T12:33:03.317Z,22.46
2016-06-15T12:34:03.179Z,22.55
2016-06-15T12:35:03.636Z,22.54
2016-06-15T12:36:02.858Z,22.55
2016-06-15T12:37:03.094Z,22.64
2016-06-15T12:38:03.364Z,22.65
2016-06-15T12:39:03.148Z,22.57
2016-06-15T12:40:03.151Z,22.7
2016-06-15T12:41:03.437Z,22.73
2016-06-15T12:42:17.689Z,22.83
2016-06-15T12:43:03.270Z,22.88
2016-06-15T12:45:03.870Z,22.88
2016-06-15T12:46:03.248Z,22.92
2016-06-15T12:47:03.626Z,22.86
2016-06-15T12:48:02.942Z,22.86
2016-06-15T12:49:03.006Z,22.98
2016-06-15T12:50:04.854Z,23
2016-06-15T12:51:03.029Z,22.94
2016-06-15T12:53:04.738Z,22.98
2016-06-15T12:54:03.429Z,23.01
2016-06-15T12:55:03.964Z,23
2016-06-15T12:56:03.732Z,23.01
2016-06-15T12:58:03.769Z,22.98
2016-06-15T12:59:04.273Z,22.95
2016-06-15T13:00:03.713Z,23.02
2016-06-15T13:01:03.716Z,22.95
2016-06-15T13:02:32.113Z,22.92
2016-06-15T13:03:03.504Z,22.88
2016-06-15T13:04:04.069Z,22.98
2016-06-15T13:05:04.213Z,23
2016-06-15T13:06:19.344Z,23.05
2016-06-15T13:07:04.359Z,23.13
2016-06-15T13:09:03.647Z,23.32
2016-06-15T13:10:03.932Z,23.23
2016-06-15T13:11:03.731Z,23.33
2016-06-15T13:12:04.499Z,23.36
2016-06-15T13:13:03.988Z,23.42
2016-06-15T13:14:03.927Z,23.35
2016-06-15T13:15:03.712Z,23.42
2016-06-15T13:16:03.950Z,23.36
2016-06-15T13:17:04.078Z,23.47
2016-06-15T13:18:04.065Z,23.43
2016-06-15T13:19:04.443Z,23.35
2016-06-15T13:20:04.071Z,23.46
2016-06-15T13:21:18.138Z,23.53
2016-06-15T13:22:18.577Z,23.5
2016-06-15T13:23:04.330Z,23.39
2016-06-15T13:24:04.319Z,23.4
2016-06-15T13:25:03.883Z,23.39
2016-06-15T13:27:04.093Z,23.39
2016-06-15T13:28:04.456Z,23.35
2016-06-15T13:29:04.067Z,23.28
2016-06-15T13:30:04.305Z,23.39
2016-06-15T13:31:04.980Z,23.33
2016-06-15T13:32:04.139Z,23.36
2016-06-15T13:33:04.127Z,23.22
2016-06-15T13:34:04.036Z,23.23
2016-06-15T13:35:04.603Z,23.35
2016-06-15T13:36:04.042Z,23.31
2016-06-15T13:37:04.515Z,23.39
2016-06-15T13:38:04.471Z,23.23
2016-06-15T13:39:04.583Z,23.33
2016-06-15T13:40:04.320Z,23.23
2016-06-15T13:41:04.308Z,23.27
2016-06-15T13:42:04.217Z,23.33
2016-06-15T13:43:04.158Z,23.42
2016-06-15T13:44:04.661Z,23.43
2016-06-15T13:45:18.243Z,23.4
2016-06-15T13:46:04.229Z,23.39
2016-06-15T13:47:18.467Z,23.36
2016-06-15T13:48:04.096Z,23.43
2016-06-15T13:49:04.177Z,23.43
2016-06-15T13:50:18.242Z,23.36
2016-06-15T13:51:04.402Z,23.51
2016-06-15T13:52:04.700Z,23.39
2016-06-15T13:53:04.736Z,23.4
2016-06-15T13:54:04.364Z,23.39
2016-06-15T13:55:04.210Z,23.35
2016-06-15T13:56:04.635Z,23.38
2016-06-15T13:57:03.982Z,23.48
2016-06-15T13:58:04.563Z,23.39